Hoffman, Illinois
Current Conditions -  °F | °C
As of 6:35 AM on Monday 26 Jan 2015 (Local Time) from KENL Reporting Station
Overcast Overcast  
Wind Chill: 16°   Ceiling: 1400
Heat Index: 26°   Visibility: 10mi
Dew Point: 20°   Wind: 9mph
Humidity: 80%   Direction: 300°WNW
Pressure: 30.01"   Gusts: NA
Location:  38.54°N, 89.26°W
Report Text: KENL 261235Z AUTO 30008KT 10SM OVC014 M03/M06 A3001 RMK AO2 T10351065
Loading
Personal Weather Stations






























Interactive Weather Map New forecast layout! Learn more

10-Day Weather Forecast

Advertisements
Track Severe Weather on mobile